createdAt,value
2022-07-28T00:00:08.440Z,72.07
2022-07-28T00:02:35.747Z,71.68
2022-07-28T00:05:03.315Z,72.78
2022-07-28T00:07:30.365Z,74.15
2022-07-28T00:10:00.611Z,74.17
2022-07-28T00:12:28.756Z,74.26
2022-07-28T00:14:56.192Z,74.32
2022-07-28T00:17:23.520Z,74.33
2022-07-28T00:19:51.088Z,74.19
2022-07-28T00:22:19.102Z,74.73
2022-07-28T00:24:46.080Z,76.22
2022-07-28T00:27:19.212Z,76.21
2022-07-28T00:29:50.199Z,75.47
2022-07-28T00:32:19.426Z,75.24
2022-07-28T00:34:47.361Z,75.52
2022-07-28T00:37:15.127Z,75.11
2022-07-28T00:39:43.486Z,75.68
2022-07-28T00:42:10.582Z,75.44
2022-07-28T00:44:42.150Z,75.23
2022-07-28T00:47:09.417Z,75.76
2022-07-28T00:49:37.768Z,75.69
2022-07-28T00:52:07.649Z,76.05
2022-07-28T00:54:35.246Z,75.75
2022-07-28T00:57:02.364Z,76.12
2022-07-28T00:59:29.335Z,76.19
2022-07-28T01:02:00.394Z,75.95
2022-07-28T01:04:27.702Z,75.09
2022-07-28T01:07:13.573Z,74.95
2022-07-28T01:09:40.525Z,75.79
2022-07-28T01:12:25.732Z,75.81
2022-07-28T01:15:03.726Z,75.70
2022-07-28T01:17:37.169Z,75.17
2022-07-28T01:20:11.485Z,75.34
2022-07-28T01:22:45.842Z,75.86
2022-07-28T01:25:24.378Z,75.56
2022-07-28T01:28:06.223Z,76.45
2022-07-28T01:30:39.727Z,76.66
2022-07-28T01:33:25.130Z,76.56
2022-07-28T01:36:03.251Z,77.31
2022-07-28T01:38:33.628Z,77.79
2022-07-28T01:41:04.216Z,76.94
2022-07-28T01:43:35.013Z,76.75
2022-07-28T01:46:03.966Z,76.61
2022-07-28T01:48:34.001Z,76.05
2022-07-28T01:51:02.524Z,76.26
2022-07-28T01:53:37.386Z,76.79
2022-07-28T01:56:06.684Z,76.54
2022-07-28T01:58:35.573Z,76.78
2022-07-28T02:01:04.932Z,77.49
2022-07-28T02:03:34.845Z,77.86
2022-07-28T02:06:06.525Z,78.26
2022-07-28T02:08:35.644Z,78.27
2022-07-28T02:11:21.463Z,78.59
2022-07-28T02:13:51.023Z,78.76
2022-07-28T02:16:22.865Z,79.52
2022-07-28T02:18:52.377Z,79.23
2022-07-28T02:21:21.631Z,78.84
2022-07-28T02:23:50.824Z,78.34
2022-07-28T02:26:23.391Z,78.49
2022-07-28T02:28:53.546Z,77.97
2022-07-28T02:31:26.510Z,77.18
2022-07-28T02:34:02.028Z,76.93
2022-07-28T02:36:34.864Z,77.03
2022-07-28T02:39:07.584Z,77.32
2022-07-28T02:41:41.754Z,76.91
2022-07-28T02:44:25.128Z,76.78
2022-07-28T02:46:55.564Z,77.50
2022-07-28T02:49:31.172Z,77.71
2022-07-28T02:52:00.737Z,77.47
2022-07-28T02:54:30.208Z,77.18
2022-07-28T02:57:00.635Z,78.06
2022-07-28T02:59:29.113Z,78.06
2022-07-28T03:01:57.157Z,77.76
2022-07-28T03:04:44.046Z,78.01
2022-07-28T03:07:11.719Z,77.92
2022-07-28T03:09:45.951Z,77.55
2022-07-28T03:12:14.126Z,77.49
2022-07-28T03:14:42.216Z,76.96
2022-07-28T03:17:10.068Z,77.25
2022-07-28T03:19:37.431Z,77.66
2022-07-28T03:22:05.379Z,77.65
2022-07-28T03:24:51.244Z,77.55
2022-07-28T03:27:41.297Z,77.99
2022-07-28T03:30:23.111Z,77.58
2022-07-28T03:32:55.901Z,77.56
2022-07-28T03:35:23.973Z,78.56
2022-07-28T03:37:55.455Z,78.93
2022-07-28T03:40:26.944Z,79.33
2022-07-28T03:42:55.325Z,79.53
2022-07-28T03:45:23.343Z,79.63
2022-07-28T03:47:56.451Z,78.99
2022-07-28T03:50:25.005Z,78.54
2022-07-28T03:52:52.444Z,79.27
2022-07-28T03:55:20.157Z,79.33
2022-07-28T03:57:47.804Z,78.12
2022-07-28T04:00:16.962Z,78.77
2022-07-28T04:02:45.036Z,78.87
2022-07-28T04:05:15.395Z,79.52
2022-07-28T04:07:43.564Z,79.84
2022-07-28T04:10:14.047Z,80.01
2022-07-28T04:12:53.407Z,80.88
2022-07-28T04:15:20.470Z,81.21
2022-07-28T04:17:49.440Z,81.11
2022-07-28T04:20:18.374Z,81.59
2022-07-28T04:22:46.215Z,81.41
2022-07-28T04:25:15.057Z,81.16
2022-07-28T04:27:43.383Z,80.68
2022-07-28T04:30:15.015Z,80.76
2022-07-28T04:32:42.284Z,80.84
2022-07-28T04:35:12.970Z,81.63
2022-07-28T04:37:45.235Z,81.15
2022-07-28T04:40:13.720Z,81.18
2022-07-28T04:42:41.332Z,80.78
2022-07-28T04:45:11.994Z,81.02
2022-07-28T04:47:40.285Z,81.32
2022-07-28T04:50:09.945Z,81.19
2022-07-28T04:52:38.453Z,81.35
2022-07-28T04:55:06.739Z,81.17
2022-07-28T04:57:34.958Z,80.73
2022-07-28T05:00:12.331Z,80.96
2022-07-28T05:02:42.165Z,81.38
2022-07-28T05:05:10.256Z,81.16
2022-07-28T05:07:39.085Z,81.98
2022-07-28T05:10:07.927Z,80.85
2022-07-28T05:12:36.598Z,79.94
2022-07-28T05:15:04.844Z,79.60
2022-07-28T05:17:31.974Z,79.08
2022-07-28T05:19:59.097Z,79.69
2022-07-28T05:22:27.107Z,79.81
2022-07-28T05:24:54.133Z,80.06
2022-07-28T05:27:21.165Z,80.75
2022-07-28T05:29:48.228Z,79.34
2022-07-28T05:32:17.478Z,79.38
2022-07-28T05:34:45.864Z,77.25
2022-07-28T05:37:12.895Z,76.14
2022-07-28T05:39:39.804Z,76.37
2022-07-28T05:42:07.089Z,76.70
2022-07-28T05:44:38.158Z,76.13
2022-07-28T05:47:06.264Z,76.08
2022-07-28T05:49:33.998Z,76.11
2022-07-28T05:52:01.307Z,75.49
2022-07-28T05:54:28.526Z,74.73
2022-07-28T05:56:55.690Z,73.92
2022-07-28T05:59:22.632Z,73.43
2022-07-28T06:01:50.410Z,73.47
2022-07-28T06:04:26.766Z,72.42
2022-07-28T06:06:55.820Z,71.94
2022-07-28T06:09:22.719Z,72.52
2022-07-28T06:11:51.006Z,71.88
2022-07-28T06:14:19.165Z,71.45
2022-07-28T06:16:51.439Z,71.36
2022-07-28T06:19:19.482Z,71.29
2022-07-28T06:21:47.790Z,69.70
2022-07-28T06:24:15.224Z,66.96
2022-07-28T06:26:44.930Z,66.32
2022-07-28T06:29:12.585Z,67.04
2022-07-28T06:31:39.705Z,66.93
2022-07-28T06:34:06.822Z,65.29
2022-07-28T06:36:33.728Z,64.65
2022-07-28T06:39:00.886Z,63.95
2022-07-28T06:41:28.184Z,66.20
2022-07-28T06:43:55.059Z,64.17
2022-07-28T06:46:22.929Z,61.71
2022-07-28T06:48:50.378Z,62.51
2022-07-28T06:51:20.072Z,59.28
2022-07-28T06:53:48.847Z,61.25
2022-07-28T06:56:16.872Z,58.29
2022-07-28T06:58:47.095Z,57.59
2022-07-28T07:01:15.466Z,57.10
2022-07-28T07:03:43.707Z,56.24
2022-07-28T07:06:11.262Z,58.29
2022-07-28T07:08:38.720Z,59.00
2022-07-28T07:11:06.157Z,58.63
2022-07-28T07:13:33.430Z,58.48
2022-07-28T07:16:00.866Z,57.25
2022-07-28T07:18:27.924Z,57.47
2022-07-28T07:20:57.209Z,58.32
2022-07-28T07:23:24.220Z,54.12
2022-07-28T07:25:51.329Z,54.52
2022-07-28T07:28:18.363Z,51.14
2022-07-28T07:30:45.356Z,52.64
2022-07-28T07:33:12.362Z,53.67
2022-07-28T07:35:39.439Z,50.81
2022-07-28T07:38:06.604Z,51.44
2022-07-28T07:40:33.916Z,50.49
2022-07-28T07:43:00.944Z,50.99
2022-07-28T07:45:28.071Z,52.14
2022-07-28T07:47:55.101Z,51.96
2022-07-28T07:50:22.390Z,49.95
2022-07-28T07:52:52.119Z,47.26
2022-07-28T07:55:19.160Z,47.74
2022-07-28T07:57:46.110Z,46.67
2022-07-28T08:00:28.800Z,48.87
2022-07-28T08:03:00.637Z,48.24
2022-07-28T08:05:34.797Z,45.19
2022-07-28T08:08:06.609Z,46.18
2022-07-28T08:10:35.585Z,47.31
2022-07-28T08:13:03.510Z,48.44
2022-07-28T08:15:31.179Z,48.31
2022-07-28T08:17:58.669Z,48.81
2022-07-28T08:20:25.953Z,48.26
2022-07-28T08:22:56.422Z,49.63
2022-07-28T08:25:24.766Z,48.99
2022-07-28T08:27:51.799Z,49.90
2022-07-28T08:30:26.254Z,51.89
2022-07-28T08:32:57.071Z,48.95
2022-07-28T08:35:35.154Z,49.01
2022-07-28T08:38:06.466Z,50.23
2022-07-28T08:40:35.697Z,49.13
2022-07-28T08:43:30.754Z,49.89
2022-07-28T08:46:01.216Z,49.83
2022-07-28T08:48:35.692Z,48.93
2022-07-28T08:51:11.330Z,49.09
2022-07-28T08:53:40.532Z,47.14
2022-07-28T08:56:10.115Z,47.27
2022-07-28T08:58:38.333Z,47.14
2022-07-28T09:01:08.816Z,46.95
2022-07-28T09:03:36.839Z,46.25
2022-07-28T09:06:04.570Z,45.33
2022-07-28T09:08:31.746Z,45.68
2022-07-28T09:10:58.635Z,44.62
2022-07-28T09:13:25.705Z,44.44
2022-07-28T09:15:53.111Z,43.20
2022-07-28T09:18:21.965Z,43.14
2022-07-28T09:20:48.978Z,45.11
2022-07-28T09:23:42.594Z,43.79
2022-07-28T09:26:12.033Z,44.32
2022-07-28T09:28:58.141Z,43.36
2022-07-28T09:31:27.546Z,43.97
2022-07-28T09:34:02.644Z,44.69
2022-07-28T09:36:31.403Z,45.14
2022-07-28T09:38:59.331Z,44.31
2022-07-28T09:41:26.363Z,44.32
2022-07-28T09:43:55.904Z,45.82
2022-07-28T09:46:25.756Z,43.53
2022-07-28T09:48:59.529Z,43.40
2022-07-28T09:51:29.966Z,42.84
2022-07-28T09:54:15.272Z,43.05
2022-07-28T09:56:44.838Z,43.55
2022-07-28T09:59:14.801Z,43.45
2022-07-28T10:01:58.861Z,43.07
2022-07-28T10:04:40.899Z,42.42
2022-07-28T10:07:19.258Z,43.18
2022-07-28T10:10:08.085Z,42.26
2022-07-28T10:12:37.707Z,42.86
2022-07-28T10:15:37.463Z,41.01
2022-07-28T10:18:09.782Z,40.99
2022-07-28T10:20:40.718Z,38.27
2022-07-28T10:23:11.726Z,37.99
2022-07-28T10:25:41.037Z,41.73
2022-07-28T10:28:12.061Z,37.65
2022-07-28T10:30:43.761Z,37.81
2022-07-28T10:33:20.710Z,36.25
2022-07-28T10:36:03.731Z,36.85
2022-07-28T10:38:36.507Z,35.83
2022-07-28T10:41:09.187Z,36.22
2022-07-28T10:43:42.783Z,35.92
2022-07-28T10:46:16.847Z,35.76
2022-07-28T10:48:45.796Z,34.09
2022-07-28T10:51:17.350Z,33.58
2022-07-28T10:53:56.893Z,34.48
2022-07-28T10:56:38.791Z,34.53
2022-07-28T10:59:35.362Z,34.72
2022-07-28T11:02:06.475Z,35.74
2022-07-28T11:04:44.489Z,36.59
2022-07-28T11:07:16.120Z,35.21
2022-07-28T11:09:47.463Z,34.76
2022-07-28T11:12:17.258Z,35.28
2022-07-28T11:14:50.477Z,35.33
2022-07-28T11:17:33.110Z,34.78
2022-07-28T11:20:27.125Z,34.61
2022-07-28T11:22:51.932Z,34.03
2022-07-28T11:25:22.550Z,33.61
2022-07-28T11:27:51.714Z,34.31
2022-07-28T11:30:22.747Z,34.74
2022-07-28T11:32:54.301Z,34.55
2022-07-28T11:35:27.291Z,35.32
2022-07-28T11:38:03.015Z,34.70
2022-07-28T11:40:50.440Z,34.00
2022-07-28T11:43:36.216Z,35.78
2022-07-28T11:46:07.801Z,34.66
2022-07-28T11:48:44.171Z,35.69
2022-07-28T11:51:14.687Z,35.26
2022-07-28T11:53:53.226Z,35.37
2022-07-28T11:56:37.831Z,35.66
2022-07-28T11:59:08.394Z,35.92
2022-07-28T12:01:38.789Z,36.15
2022-07-28T12:04:15.142Z,35.05
2022-07-28T12:06:51.224Z,35.56
2022-07-28T12:09:35.897Z,34.81
2022-07-28T12:12:11.540Z,34.46
2022-07-28T12:14:41.321Z,35.63
2022-07-28T12:17:09.762Z,34.92
2022-07-28T12:19:50.217Z,35.99
2022-07-28T12:22:21.128Z,35.15
2022-07-28T12:25:00.736Z,34.16
2022-07-28T12:27:38.501Z,33.86
2022-07-28T12:30:11.263Z,36.20
2022-07-28T12:32:38.759Z,33.62
2022-07-28T12:35:07.151Z,34.33
2022-07-28T12:37:39.401Z,34.61
2022-07-28T12:40:11.011Z,33.35
2022-07-28T12:42:39.890Z,34.38
2022-07-28T12:45:12.019Z,33.46
2022-07-28T12:47:39.648Z,32.89
2022-07-28T12:50:21.112Z,34.49
2022-07-28T12:53:08.242Z,34.42
2022-07-28T12:55:39.089Z,34.65
2022-07-28T12:58:10.238Z,34.15
2022-07-28T13:00:51.680Z,33.53
2022-07-28T13:03:32.485Z,34.64
2022-07-28T13:06:10.282Z,33.71
2022-07-28T13:08:47.512Z,33.72
2022-07-28T13:11:45.879Z,33.06
2022-07-28T13:14:09.828Z,32.79
2022-07-28T13:16:40.657Z,33.35
2022-07-28T13:19:28.064Z,34.03
2022-07-28T13:22:08.881Z,32.66
2022-07-28T13:24:37.002Z,32.39
2022-07-28T13:27:05.820Z,32.56
2022-07-28T13:29:35.566Z,32.40
2022-07-28T13:32:03.837Z,32.50
2022-07-28T13:34:31.681Z,32.82
2022-07-28T13:36:59.459Z,32.74
2022-07-28T13:39:27.950Z,32.67
2022-07-28T13:41:57.828Z,32.61
2022-07-28T13:44:29.967Z,33.19
2022-07-28T13:47:00.802Z,32.66
2022-07-28T13:49:32.229Z,32.77
2022-07-28T13:52:00.283Z,33.95
2022-07-28T13:54:27.942Z,32.54
2022-07-28T13:56:55.575Z,32.79
2022-07-28T13:59:28.214Z,32.94
2022-07-28T14:01:57.667Z,33.74
2022-07-28T14:04:26.675Z,33.84
2022-07-28T14:06:55.401Z,33.61
2022-07-28T14:09:23.811Z,32.99
2022-07-28T14:11:53.625Z,32.75
2022-07-28T14:14:25.737Z,32.50
2022-07-28T14:16:55.159Z,32.96
2022-07-28T14:19:43.523Z,32.96
2022-07-28T14:22:16.122Z,32.94
2022-07-28T14:24:43.280Z,33.10
2022-07-28T14:27:11.877Z,33.84
2022-07-28T14:29:45.839Z,32.97
2022-07-28T14:32:18.593Z,33.24
2022-07-28T14:34:53.438Z,32.15
2022-07-28T14:37:21.861Z,33.61
2022-07-28T14:39:56.273Z,33.57
2022-07-28T14:42:26.770Z,32.91
2022-07-28T14:44:55.650Z,34.36
2022-07-28T14:47:26.017Z,33.65
2022-07-28T14:50:20.495Z,33.65
2022-07-28T14:52:53.841Z,33.14
2022-07-28T14:55:28.603Z,32.56
2022-07-28T14:57:59.336Z,33.03
2022-07-28T15:00:31.098Z,32.88
2022-07-28T15:03:00.180Z,33.07
2022-07-28T15:05:32.372Z,32.80
2022-07-28T15:08:05.855Z,33.62
2022-07-28T15:10:35.658Z,33.81
2022-07-28T15:13:05.710Z,32.48
2022-07-28T15:15:42.948Z,33.54
2022-07-28T15:18:13.684Z,34.00
2022-07-28T15:20:44.320Z,33.85
2022-07-28T15:23:15.172Z,34.31
2022-07-28T15:25:46.111Z,34.72
2022-07-28T15:28:17.861Z,35.22
2022-07-28T15:30:58.082Z,35.60
2022-07-28T15:33:26.039Z,35.90
2022-07-28T15:36:00.564Z,35.32
2022-07-28T15:38:31.487Z,35.84
2022-07-28T15:41:00.648Z,36.82
2022-07-28T15:43:29.262Z,35.72
2022-07-28T15:45:57.691Z,35.60
2022-07-28T15:48:31.392Z,35.81
2022-07-28T15:51:05.502Z,36.46
2022-07-28T15:53:34.924Z,37.58
2022-07-28T15:56:04.717Z,36.53
2022-07-28T15:58:37.890Z,35.86
2022-07-28T16:01:09.274Z,35.52
2022-07-28T16:03:37.900Z,35.94
2022-07-28T16:06:05.421Z,36.50
2022-07-28T16:08:35.992Z,36.94
2022-07-28T16:11:06.887Z,36.51
2022-07-28T16:13:37.582Z,37.07
2022-07-28T16:16:11.818Z,37.43
2022-07-28T16:18:44.865Z,37.44
2022-07-28T16:21:17.891Z,37.35
2022-07-28T16:23:53.052Z,37.62
2022-07-28T16:26:20.080Z,37.67
2022-07-28T16:28:47.923Z,36.81
2022-07-28T16:31:16.846Z,37.22
2022-07-28T16:33:46.531Z,37.67
2022-07-28T16:36:17.016Z,37.98
2022-07-28T16:38:50.561Z,38.81
2022-07-28T16:41:22.962Z,39.28
2022-07-28T16:44:11.504Z,38.67
2022-07-28T16:46:41.314Z,38.84
2022-07-28T16:49:12.364Z,39.08
2022-07-28T16:51:49.050Z,38.83
2022-07-28T16:54:20.275Z,38.56
2022-07-28T16:56:53.930Z,38.72
2022-07-28T16:59:37.547Z,39.29
2022-07-28T17:02:19.406Z,39.21
2022-07-28T17:04:52.043Z,39.26
2022-07-28T17:07:22.378Z,39.44
2022-07-28T17:09:53.398Z,39.54
2022-07-28T17:12:29.590Z,39.86
2022-07-28T17:15:02.344Z,40.26
2022-07-28T17:17:30.736Z,39.30
2022-07-28T17:20:00.469Z,39.94
2022-07-28T17:22:32.275Z,39.26
2022-07-28T17:25:01.162Z,39.55
2022-07-28T17:27:37.333Z,39.48
2022-07-28T17:30:08.288Z,39.44
2022-07-28T17:32:36.125Z,39.94
2022-07-28T17:35:34.535Z,40.42
2022-07-28T17:38:01.224Z,40.29
2022-07-28T17:40:30.795Z,40.55
2022-07-28T17:43:01.503Z,40.38
2022-07-28T17:45:34.123Z,40.69
2022-07-28T17:48:03.957Z,40.86
2022-07-28T17:50:37.571Z,40.38
2022-07-28T17:53:09.410Z,40.75
2022-07-28T17:56:00.491Z,40.92
2022-07-28T17:58:29.646Z,40.94
2022-07-28T18:01:10.335Z,40.99
2022-07-28T18:03:56.713Z,41.96
2022-07-28T18:06:34.836Z,40.87
2022-07-28T18:09:07.492Z,40.90
2022-07-28T18:11:56.399Z,41.01
2022-07-28T18:14:30.491Z,41.94
2022-07-28T18:16:58.975Z,42.98
2022-07-28T18:19:27.268Z,42.57
2022-07-28T18:21:56.372Z,42.75
2022-07-28T18:24:24.427Z,42.86
2022-07-28T18:26:52.795Z,42.99
2022-07-28T18:29:22.616Z,43.51
2022-07-28T18:31:51.702Z,43.34
2022-07-28T18:34:23.093Z,43.39
2022-07-28T18:36:54.633Z,43.50
2022-07-28T18:39:22.305Z,43.50
2022-07-28T18:41:50.917Z,44.02
2022-07-28T18:44:21.412Z,44.15
2022-07-28T18:46:50.569Z,44.36
2022-07-28T18:49:17.829Z,44.64
2022-07-28T18:51:46.048Z,45.23
2022-07-28T18:54:18.587Z,45.08
2022-07-28T18:56:48.722Z,45.31
2022-07-28T18:59:15.914Z,45.60
2022-07-28T19:01:43.298Z,45.55
2022-07-28T19:04:10.429Z,45.85
2022-07-28T19:06:37.493Z,46.03
2022-07-28T19:09:05.307Z,46.68
2022-07-28T19:11:33.636Z,46.73
2022-07-28T19:14:00.672Z,46.49
2022-07-28T19:16:27.766Z,45.85
2022-07-28T19:18:54.944Z,46.95
2022-07-28T19:21:21.914Z,46.77
2022-07-28T19:23:49.257Z,47.03
2022-07-28T19:26:16.254Z,47.52
2022-07-28T19:28:43.332Z,48.22
2022-07-28T19:31:10.916Z,47.94
2022-07-28T19:33:42.886Z,48.25
2022-07-28T19:36:11.895Z,48.53
2022-07-28T19:38:39.706Z,48.43
2022-07-28T19:41:07.673Z,49.39
2022-07-28T19:43:35.463Z,49.35
2022-07-28T19:46:03.002Z,49.51
2022-07-28T19:48:30.064Z,50.13
2022-07-28T19:50:59.727Z,50.30
2022-07-28T19:53:31.635Z,49.99
2022-07-28T19:55:59.359Z,50.67
2022-07-28T19:58:26.294Z,50.66
2022-07-28T20:00:53.943Z,50.69
2022-07-28T20:04:03.000Z,51.86
2022-07-28T20:06:13.206Z,51.98
2022-07-28T20:08:40.201Z,52.39
2022-07-28T20:11:08.326Z,52.47
2022-07-28T20:13:35.840Z,53.15
2022-07-28T20:16:02.961Z,53.38
2022-07-28T20:18:30.024Z,52.85
2022-07-28T20:20:57.573Z,53.59
2022-07-28T20:23:24.604Z,54.16
2022-07-28T20:25:51.662Z,54.08
2022-07-28T20:28:18.793Z,53.92
2022-07-28T20:30:45.984Z,54.85
2022-07-28T20:33:12.991Z,55.08
2022-07-28T20:35:40.322Z,54.80
2022-07-28T20:38:08.453Z,55.29
2022-07-28T20:40:35.813Z,55.21
2022-07-28T20:43:03.130Z,55.56
2022-07-28T20:45:31.921Z,55.68
2022-07-28T20:47:58.851Z,55.87
2022-07-28T20:50:26.204Z,55.65
2022-07-28T20:52:53.254Z,55.94
2022-07-28T20:55:21.007Z,56.07
2022-07-28T20:57:53.492Z,56.46
2022-07-28T21:00:21.186Z,57.16
2022-07-28T21:02:48.213Z,56.85
2022-07-28T21:05:25.674Z,56.62
2022-07-28T21:08:06.201Z,56.64
2022-07-28T21:10:36.250Z,57.27
2022-07-28T21:13:03.113Z,57.61
2022-07-28T21:15:30.272Z,57.95
2022-07-28T21:17:57.400Z,58.25
2022-07-28T21:20:24.702Z,58.81
2022-07-28T21:22:52.124Z,58.81
2022-07-28T21:25:19.504Z,58.86
2022-07-28T21:28:04.942Z,58.58
2022-07-28T21:30:32.669Z,59.07
2022-07-28T21:32:59.668Z,59.42
2022-07-28T21:35:27.043Z,59.44
2022-07-28T21:37:54.073Z,59.83
2022-07-28T21:40:21.125Z,60.00
2022-07-28T21:42:48.220Z,60.62
2022-07-28T21:45:15.332Z,60.81
2022-07-28T21:47:42.774Z,60.49
2022-07-28T21:50:10.495Z,61.58
2022-07-28T21:52:38.214Z,62.82
2022-07-28T21:55:07.932Z,63.06
2022-07-28T21:57:35.457Z,63.21
2022-07-28T22:00:06.464Z,63.83
2022-07-28T22:02:33.569Z,63.94
2022-07-28T22:05:01.076Z,63.31
2022-07-28T22:07:28.387Z,63.43
2022-07-28T22:09:55.338Z,63.80
2022-07-28T22:12:22.896Z,63.74
2022-07-28T22:14:49.828Z,64.42
2022-07-28T22:17:17.506Z,64.44
2022-07-28T22:19:44.452Z,64.02
2022-07-28T22:22:11.518Z,63.67
2022-07-28T22:24:38.656Z,63.62
2022-07-28T22:27:05.791Z,63.61
2022-07-28T22:29:32.735Z,63.42
2022-07-28T22:31:59.859Z,63.58
2022-07-28T22:34:28.053Z,63.69
2022-07-28T22:36:55.530Z,64.61
2022-07-28T22:39:22.691Z,64.94
2022-07-28T22:41:49.731Z,64.95
2022-07-28T22:44:17.312Z,64.59
2022-07-28T22:46:44.954Z,64.27
2022-07-28T22:49:12.008Z,64.18
2022-07-28T22:51:39.117Z,63.62
2022-07-28T22:54:14.060Z,64.16
2022-07-28T22:56:41.602Z,64.81
2022-07-28T22:59:09.999Z,64.94
2022-07-28T23:01:39.600Z,64.98
2022-07-28T23:04:11.368Z,65.06
2022-07-28T23:06:41.585Z,64.73
2022-07-28T23:09:08.661Z,64.62
2022-07-28T23:11:35.681Z,65.29
2022-07-28T23:14:02.588Z,64.91
2022-07-28T23:16:30.229Z,65.49
2022-07-28T23:18:57.198Z,66.72
2022-07-28T23:21:24.170Z,66.22
2022-07-28T23:23:51.163Z,66.79
2022-07-28T23:26:18.362Z,66.96
2022-07-28T23:28:45.304Z,66.50
2022-07-28T23:31:12.387Z,66.70
2022-07-28T23:33:55.561Z,66.66
2022-07-28T23:36:27.584Z,66.41
2022-07-28T23:38:56.813Z,66.08
2022-07-28T23:41:24.242Z,66.61
2022-07-28T23:43:51.574Z,67.17
2022-07-28T23:46:18.729Z,67.08
2022-07-28T23:48:45.825Z,67.47
2022-07-28T23:51:14.449Z,67.56
2022-07-28T23:53:41.590Z,67.90
2022-07-28T23:56:09.621Z,68.27
2022-07-28T23:58:36.576Z,68.48
